Time;durP1;ratioP1;P1;durP2;ratioP2;P2;SDS_P1;SDS_P2;PMS_P1;PMS_P2;Temp;Humidity;BMP_temperature;BMP_pressure;BME280_temperature;BME280_humidity;BME280_pressure;Samples;Min_cycle;Max_cycle;Signal;HPM_P1;HPM_P2
2022/04/11 00:00:38;;;;;;;31.50;8.57;;;;;;;7.25;61.68;101843.41;5089809;28;20022;-79
2022/04/11 00:03:03;;;;;;;29.17;8.68;;;;;;;7.22;61.66;101841.00;5090467;28;20028;-78
2022/04/11 00:05:28;;;;;;;22.63;7.55;;;;;;;7.16;61.78;101836.19;5090161;28;20036;-78
2022/04/11 00:07:53;;;;;;;23.48;8.70;;;;;;;7.18;62.82;101836.88;5088911;28;20132;-78
2022/04/11 00:10:19;;;;;;;23.83;8.77;;;;;;;7.17;61.61;101835.19;5090418;28;20181;-78
2022/04/11 00:12:44;;;;;;;27.88;9.13;;;;;;;7.19;61.77;101830.56;5091930;28;20074;-77
2022/04/11 00:15:10;;;;;;;30.17;9.55;;;;;;;7.19;62.02;101840.44;5098466;28;20546;-76
2022/04/11 00:17:36;;;;;;;26.50;9.23;;;;;;;7.14;62.83;101834.63;5090283;28;20032;-77
2022/04/11 00:20:01;;;;;;;22.55;8.90;;;;;;;7.17;63.17;101835.19;5090301;28;20367;-76
2022/04/11 00:22:27;;;;;;;27.75;8.70;;;;;;;7.23;63.82;101833.81;5089869;28;20081;-77
2022/04/11 00:24:52;;;;;;;26.25;9.20;;;;;;;7.26;63.45;101830.84;5090026;28;20043;-77
2022/04/11 00:27:18;;;;;;;22.77;9.43;;;;;;;7.25;62.71;101835.38;5089630;28;20027;-79
2022/04/11 00:29:44;;;;;;;25.08;9.50;;;;;;;7.22;62.51;101832.97;5090139;28;20036;-79
2022/04/11 00:32:09;;;;;;;28.48;9.43;;;;;;;7.21;62.20;101842.00;5089840;28;20422;-79
2022/04/11 00:34:34;;;;;;;27.60;10.15;;;;;;;7.23;63.55;101831.97;5088862;28;20670;-79
2022/04/11 00:37:00;;;;;;;23.45;9.55;;;;;;;7.24;62.93;101839.03;5090573;28;20024;-77
2022/04/11 00:39:25;;;;;;;30.15;9.73;;;;;;;7.21;63.33;101827.72;5089436;28;20024;-77
2022/04/11 00:41:50;;;;;;;34.78;10.68;;;;;;;7.20;63.53;101834.91;5085585;28;20121;-79
2022/04/11 00:44:16;;;;;;;37.70;10.02;;;;;;;7.16;63.38;101830.84;5089885;28;20028;-79
2022/04/11 00:46:41;;;;;;;29.98;9.70;;;;;;;7.15;62.60;101826.44;5090362;28;20065;-77
2022/04/11 00:49:07;;;;;;;30.05;10.85;;;;;;;7.17;63.23;101821.81;5088851;28;20082;-79
2022/04/11 00:51:33;;;;;;;22.25;9.07;;;;;;;7.15;63.43;101823.78;5088062;28;20395;-79
2022/04/11 00:54:01;;;;;;;23.08;9.90;;;;;;;7.10;63.78;101815.28;5090842;28;20040;-79
2022/04/11 00:56:28;;;;;;;34.83;8.75;;;;;;;7.16;63.33;101812.09;5092131;28;20035;-76
2022/04/11 00:58:54;;;;;;;28.53;9.17;;;;;;;7.11;63.80;101808.97;5088362;28;20050;-77
2022/04/11 01:01:20;;;;;;;27.67;9.98;;;;;;;7.10;63.82;101817.97;5093187;28;20020;-77
2022/04/11 01:03:45;;;;;;;33.65;8.52;;;;;;;7.14;62.93;101811.38;5093892;28;20039;-78
2022/04/11 01:06:10;;;;;;;30.50;8.10;;;;;;;7.13;62.84;101812.34;5093753;28;20035;-80
2022/04/11 01:08:36;;;;;;;20.90;7.55;;;;;;;7.15;62.43;101807.72;5093606;28;20124;-77
2022/04/11 01:11:05;;;;;;;30.73;8.55;;;;;;;7.18;62.26;101810.09;5092814;28;20047;-77
2022/04/11 01:13:31;;;;;;;21.10;8.70;;;;;;;7.14;62.55;101808.69;5092594;28;20101;-78
2022/04/11 01:16:00;;;;;;;23.38;8.35;;;;;;;7.06;62.76;101808.53;5092991;28;20428;-78
2022/04/11 01:18:25;;;;;;;29.25;8.18;;;;;;;7.00;63.81;101798.34;5092869;28;20096;-78
2022/04/11 01:20:51;;;;;;;21.63;7.75;;;;;;;7.00;64.05;101798.34;5092674;28;20481;-78
2022/04/11 01:23:17;;;;;;;19.42;7.43;;;;;;;6.99;63.78;101800.19;5091456;28;20020;-77
2022/04/11 01:25:42;;;;;;;23.17;7.60;;;;;;;6.99;63.97;101802.03;5092697;28;20115;-78
2022/04/11 01:28:08;;;;;;;18.10;7.25;;;;;;;6.96;64.35;101800.47;5092272;28;20028;-77
2022/04/11 01:30:33;;;;;;;26.80;8.05;;;;;;;6.98;63.91;101795.00;5084528;28;20056;-77
2022/04/11 01:32:58;;;;;;;28.98;8.98;;;;;;;6.93;63.97;101791.88;5074004;28;20028;-79
2022/04/11 01:35:25;;;;;;;20.58;7.47;;;;;;;6.91;64.06;101793.81;5092348;28;20036;-79
2022/04/11 01:37:52;;;;;;;25.38;8.75;;;;;;;6.85;64.00;101795.22;5092472;28;20028;-78
2022/04/11 01:40:17;;;;;;;21.42;8.00;;;;;;;6.77;64.49;101798.56;5092617;28;20047;-78
2022/04/11 01:42:45;;;;;;;26.63;8.05;;;;;;;6.73;64.53;101789.09;5087311;28;20487;-79
2022/04/11 01:45:12;;;;;;;24.77;7.38;;;;;;;6.74;64.39;101788.13;5091061;28;20487;-79
2022/04/11 01:47:40;;;;;;;24.38;7.80;;;;;;;6.67;64.30;101788.78;5092422;28;20136;-79
2022/04/11 01:50:07;;;;;;;21.83;8.75;;;;;;;6.57;64.90;101786.06;5092125;28;20115;-78
2022/04/11 01:52:32;;;;;;;24.25;7.97;;;;;;;6.52;65.39;101788.28;5090479;28;20467;-78
2022/04/11 01:54:58;;;;;;;19.13;7.53;;;;;;;6.50;65.79;101795.56;5081326;28;20062;-79
2022/04/11 01:57:24;;;;;;;19.58;7.68;;;;;;;6.42;65.84;101788.22;5091608;28;20024;-78
2022/04/11 01:59:50;;;;;;;22.15;7.88;;;;;;;6.42;66.37;101792.72;5085362;28;20109;-78
2022/04/11 02:02:15;;;;;;;26.17;8.88;;;;;;;6.36;66.94;101786.91;5091430;28;20028;-78
2022/04/11 02:04:40;;;;;;;27.67;9.35;;;;;;;6.33;66.83;101789.00;5091410;28;20032;-78
2022/04/11 02:07:06;;;;;;;22.85;7.82;;;;;;;6.25;66.62;101799.50;5135527;22;20465;-30
2022/04/11 02:09:31;;;;;;;22.02;7.97;;;;;;;6.20;67.47;101789.22;5063580;28;20031;-30
2022/04/11 02:11:56;;;;;;;26.30;8.05;;;;;;;6.09;67.24;101789.28;5071796;28;20021;-30
2022/04/11 02:14:22;;;;;;;22.70;7.85;;;;;;;6.12;68.08;101791.69;5072295;28;20429;-30
2022/04/11 02:16:47;;;;;;;18.80;8.13;;;;;;;6.10;68.17;101788.28;5071976;28;20524;-30
2022/04/11 02:19:12;;;;;;;23.92;8.27;;;;;;;6.10;67.87;101788.28;5070596;28;20073;-31
2022/04/11 02:21:38;;;;;;;21.77;8.13;;;;;;;6.05;68.06;101786.00;5070516;28;20033;-30
2022/04/11 02:24:03;;;;;;;19.77;8.25;;;;;;;5.97;68.13;101790.28;5058283;28;20209;-30
2022/04/11 02:26:29;;;;;;;24.10;7.50;;;;;;;5.91;67.89;101779.13;5071971;28;20054;-29
2022/04/11 02:28:54;;;;;;;23.15;7.88;;;;;;;5.87;68.42;101787.50;5072216;28;20110;-30
2022/04/11 02:31:19;;;;;;;26.40;9.07;;;;;;;5.84;69.39;101782.41;5071202;28;20107;-29
2022/04/11 02:33:45;;;;;;;13.93;7.25;;;;;;;5.83;69.52;101789.59;5072261;28;20398;-30
2022/04/11 02:36:10;;;;;;;27.45;8.77;;;;;;;5.76;69.13;101779.53;5071980;28;20043;-29
2022/04/11 02:38:35;;;;;;;22.58;8.43;;;;;;;5.73;69.54;101788.66;5065102;28;20024;-29
2022/04/11 02:41:00;;;;;;;25.38;8.73;;;;;;;5.70;69.96;101783.56;5071950;28;20089;-30
2022/04/11 02:43:26;;;;;;;22.05;8.45;;;;;;;5.69;70.34;101782.72;5071699;28;20704;-31
2022/04/11 02:45:51;;;;;;;16.73;7.68;;;;;;;5.67;69.91;101781.16;5072229;28;20475;-30
2022/04/11 02:48:16;;;;;;;21.55;8.02;;;;;;;5.68;70.27;101782.84;5071779;28;20417;-29
2022/04/11 02:50:42;;;;;;;29.77;9.38;;;;;;;5.70;70.88;101781.75;5069403;28;20471;-31
2022/04/11 02:53:07;;;;;;;21.25;8.07;;;;;;;5.69;70.55;101774.72;5068547;28;20033;-31
2022/04/11 02:55:32;;;;;;;29.00;8.38;;;;;;;5.64;70.13;101773.41;5071401;28;20103;-30
2022/04/11 02:57:58;;;;;;;21.73;8.10;;;;;;;5.64;70.43;101770.75;5069932;28;20028;-31
2022/04/11 03:00:23;;;;;;;23.13;8.55;;;;;;;5.62;70.18;101770.00;5071229;28;20066;-29
2022/04/11 03:02:48;;;;;;;22.38;8.15;;;;;;;5.65;70.20;101764.41;5071742;28;20040;-31
2022/04/11 03:05:14;;;;;;;22.85;8.88;;;;;;;5.58;70.11;101764.09;5070292;28;20016;-30
2022/04/11 03:07:39;;;;;;;21.85;9.10;;;;;;;5.54;69.84;101775.16;5059968;28;20084;-29
2022/04/11 03:10:05;;;;;;;27.75;8.18;;;;;;;5.55;70.15;101760.81;5051806;28;20028;-33
2022/04/11 03:12:31;;;;;;;17.95;8.00;;;;;;;5.49;70.74;101762.16;5049726;28;20049;-32
2022/04/11 03:14:56;;;;;;;34.40;9.63;;;;;;;5.48;70.02;101763.16;5051022;28;20028;-30
2022/04/11 03:17:22;;;;;;;25.52;8.85;;;;;;;5.40;70.62;101758.44;5051382;28;20032;-30
2022/04/11 03:19:47;;;;;;;33.55;11.40;;;;;;;5.40;70.57;101755.78;5051143;28;20028;-30
2022/04/11 03:22:13;;;;;;;27.92;9.32;;;;;;;5.36;70.60;101759.66;5049269;28;20388;-31
2022/04/11 03:24:38;;;;;;;33.20;8.82;;;;;;;5.33;70.88;101756.41;5036100;28;20034;-29
2022/04/11 03:27:04;;;;;;;27.33;8.98;;;;;;;5.33;71.02;101757.22;5033660;28;20396;-30
2022/04/11 03:29:29;;;;;;;20.88;9.57;;;;;;;5.30;70.88;101751.31;5049567;28;20032;-29
2022/04/11 03:31:54;;;;;;;24.08;9.10;;;;;;;5.28;71.40;101754.09;5050884;28;20029;-28
2022/04/11 03:34:20;;;;;;;23.63;9.23;;;;;;;5.26;71.36;101751.53;5051862;28;20035;-30
2022/04/11 03:36:45;;;;;;;28.02;9.95;;;;;;;5.23;71.73;101748.28;5047313;28;20113;-30
2022/04/11 03:39:10;;;;;;;36.80;9.68;;;;;;;5.20;71.41;101740.53;5042118;28;20040;-29
2022/04/11 03:41:36;;;;;;;24.92;9.30;;;;;;;5.25;71.66;101744.50;5045639;28;20111;-30
2022/04/11 03:44:02;;;;;;;21.25;9.43;;;;;;;5.22;71.87;101742.09;5045240;28;20570;-30
2022/04/11 03:46:28;;;;;;;20.17;9.57;;;;;;;5.19;71.86;101746.84;5051162;28;20032;-31
2022/04/11 03:48:53;;;;;;;27.40;10.20;;;;;;;5.19;71.86;101738.84;5050649;28;20082;-31
2022/04/11 03:51:20;;;;;;;32.80;11.57;;;;;;;5.20;72.24;101743.19;5050835;28;20503;-30
2022/04/11 03:53:46;;;;;;;28.40;11.48;;;;;;;5.25;72.48;101743.66;5051044;28;20495;-30
2022/04/11 03:56:14;;;;;;;22.27;9.15;;;;;;;5.25;71.79;101743.66;5051022;28;20025;-30
2022/04/11 03:58:39;;;;;;;;;;;;;;;5.25;71.54;101741.00;5050918;28;20033;-29
2022/04/11 04:01:05;;;;;;;22.67;10.18;;;;;;;5.23;71.22;101741.13;5049393;28;20304;-31
2022/04/11 04:03:30;;;;;;;24.00;9.73;;;;;;;5.20;71.70;101740.53;5049369;28;20573;-31
2022/04/11 04:05:55;;;;;;;26.08;10.20;;;;;;;5.19;71.62;101738.84;5050868;28;20045;-31
2022/04/11 04:08:21;;;;;;;24.90;10.27;;;;;;;5.21;71.50;101742.22;5050932;28;20059;-29
2022/04/11 04:10:47;;;;;;;32.08;11.75;;;;;;;5.23;71.73;101740.28;5050939;28;20128;-29
2022/04/11 04:13:12;;;;;;;25.63;9.80;;;;;;;5.24;71.81;101741.97;5045221;28;20116;-31
2022/04/11 04:15:37;;;;;;;23.20;10.88;;;;;;;5.30;71.87;101732.63;5050342;28;20606;-31
2022/04/11 04:18:03;;;;;;;25.05;10.50;;;;;;;5.28;71.49;101738.06;5050484;28;20395;-31
2022/04/11 04:20:29;;;;;;;36.40;10.68;;;;;;;5.32;71.46;101744.88;5050546;28;20037;-29
2022/04/11 04:22:55;;;;;;;24.65;10.45;;;;;;;5.26;71.04;101735.53;5050635;28;20029;-31
2022/04/11 04:25:20;;;;;;;25.05;10.73;;;;;;;5.22;71.62;101727.91;5050670;28;20032;-30
2022/04/11 04:27:45;;;;;;;24.85;10.27;;;;;;;5.21;71.77;101726.19;5048684;28;20373;-32
2022/04/11 04:30:12;;;;;;;20.52;10.73;;;;;;;5.15;71.51;101727.53;5041196;28;20033;-29
2022/04/11 04:32:37;;;;;;;31.42;11.23;;;;;;;5.15;72.44;101726.72;5052968;28;20124;-29
2022/04/11 04:35:05;;;;;;;27.98;11.23;;;;;;;5.10;72.28;101721.75;5052493;28;20480;-31
2022/04/11 04:37:30;;;;;;;24.73;11.15;;;;;;;5.10;72.56;101726.22;5054890;28;20047;-30
2022/04/11 04:39:56;;;;;;;22.55;10.45;;;;;;;5.10;72.64;101718.22;5052641;28;20112;-32
2022/04/11 04:42:22;;;;;;;29.17;11.20;;;;;;;5.05;71.89;101715.94;5054609;28;20075;-30
2022/04/11 04:44:47;;;;;;;24.92;10.57;;;;;;;5.07;71.76;101714.00;5054726;28;20054;-31
2022/04/11 04:47:13;;;;;;;26.08;11.98;;;;;;;5.00;72.56;101716.31;5045124;28;20040;-31
2022/04/11 04:49:39;;;;;;;25.63;12.07;;;;;;;4.96;73.26;101717.53;5054142;28;20047;-27
2022/04/11 04:52:06;;;;;;;21.83;11.40;;;;;;;4.93;72.77;101716.94;5047387;28;20384;-30
2022/04/11 04:54:31;;;;;;;25.15;11.52;;;;;;;4.89;72.92;101721.66;5054111;28;20044;-30
2022/04/11 04:56:57;;;;;;;26.80;10.55;;;;;;;4.89;73.21;101720.81;5052716;28;20017;-30
2022/04/11 04:59:22;;;;;;;30.00;12.48;;;;;;;4.87;72.92;101728.97;5049900;28;20124;-30
2022/04/11 05:01:47;;;;;;;25.10;11.18;;;;;;;4.84;73.43;101723.84;5051196;28;20035;-30
2022/04/11 05:04:12;;;;;;;27.23;11.25;;;;;;;4.87;73.09;101728.09;5046374;28;20059;-31
2022/04/11 05:06:38;;;;;;;27.05;11.45;;;;;;;4.87;73.38;101723.63;5034097;28;20392;-30
2022/04/11 05:09:03;;;;;;;28.63;11.50;;;;;;;4.91;73.74;101717.06;5043830;28;20064;-32
2022/04/11 05:11:28;;;;;;;32.63;12.90;;;;;;;4.98;73.06;101715.59;5053419;28;20478;-29
2022/04/11 05:13:54;;;;;;;30.20;13.32;;;;;;;4.96;73.35;101719.34;5040070;28;20029;-30
2022/04/11 05:16:19;;;;;;;29.50;12.50;;;;;;;4.96;73.66;101717.53;5034207;28;20465;-31
2022/04/11 05:18:45;;;;;;;37.13;13.00;;;;;;;5.00;73.50;101716.31;5045422;28;20021;-32
2022/04/11 05:21:10;;;;;;;37.28;13.27;;;;;;;5.01;73.77;101726.00;5053530;28;20384;-30
2022/04/11 05:23:36;;;;;;;28.50;13.63;;;;;;;5.03;73.26;101729.41;5052638;28;20033;-30
2022/04/11 05:26:05;;;;;;;33.65;14.07;;;;;;;5.12;73.38;101724.28;5052308;28;20032;-30
2022/04/11 05:28:30;;;;;;;26.38;12.52;;;;;;;5.13;73.04;101728.66;5052679;28;20455;-30
2022/04/11 05:30:56;;;;;;;35.47;12.88;;;;;;;5.17;73.23;101730.94;5053126;28;20025;-31
2022/04/11 05:33:21;;;;;;;28.85;12.18;;;;;;;5.29;72.76;101723.75;5052088;28;20040;-29
2022/04/11 05:35:47;;;;;;;34.05;12.60;;;;;;;5.33;72.86;101724.38;5051160;28;20051;-30
2022/04/11 05:38:14;;;;;;;36.35;13.73;;;;;;;5.44;72.40;101726.97;5051141;28;20472;-30
2022/04/11 05:40:39;;;;;;;45.15;13.15;;;;;;;5.60;72.57;101726.56;5052145;28;20424;-30
2022/04/11 05:43:04;;;;;;;32.80;13.80;;;;;;;6.03;72.96;101722.97;5050471;28;20136;-30
2022/04/11 05:45:30;;;;;;;38.40;12.13;;;;;;;6.72;72.59;101722.34;5050753;28;20044;-31
2022/04/11 05:47:55;;;;;;;29.17;12.73;;;;;;;7.73;69.09;101731.13;5052573;28;20040;-30
2022/04/11 05:50:20;;;;;;;26.83;11.27;;;;;;;8.52;65.55;101729.00;5049858;28;20053;-31
2022/04/11 05:52:46;;;;;;;28.38;11.10;;;;;;;9.43;61.13;101721.03;5049431;28;20084;-29
2022/04/11 05:55:11;;;;;;;30.27;10.90;;;;;;;9.98;59.01;101729.88;5052300;28;20032;-31
2022/04/11 05:57:36;;;;;;;32.50;11.57;;;;;;;10.27;56.59;101722.41;5051738;28;20037;-29
2022/04/11 06:00:02;;;;;;;27.65;11.10;;;;;;;11.00;55.05;101726.47;5049620;28;20079;-30
2022/04/11 06:02:28;;;;;;;21.77;11.05;;;;;;;11.38;53.47;101726.91;5051086;28;20066;-31
2022/04/11 06:04:53;;;;;;;22.05;10.73;;;;;;;11.55;52.63;101723.22;5051239;28;20031;-30
2022/04/11 06:07:20;;;;;;;35.75;11.45;;;;;;;11.94;50.83;101725.28;5033353;28;20435;-31
2022/04/11 06:09:46;;;;;;;24.83;10.43;;;;;;;12.58;49.37;101727.22;5051698;28;20082;-30
2022/04/11 06:12:11;;;;;;;24.75;11.93;;;;;;;12.19;48.51;101734.22;5051354;28;20033;-31
2022/04/11 06:14:36;;;;;;;28.02;11.90;;;;;;;12.35;48.28;101729.78;5050301;28;20021;-31
2022/04/11 06:17:02;;;;;;;37.90;11.88;;;;;;;12.19;47.86;101742.31;5050671;28;20071;-30
2022/04/11 06:19:27;;;;;;;27.50;11.98;;;;;;;11.62;48.81;101735.03;5051725;28;20048;-30
2022/04/11 06:21:53;;;;;;;24.48;12.23;;;;;;;11.28;49.91;101731.59;5049767;28;20392;-30
2022/04/11 06:24:18;;;;;;;21.63;11.60;;;;;;;11.25;49.10;101731.94;5049075;28;20029;-32
2022/04/11 06:26:44;;;;;;;23.23;13.13;;;;;;;10.24;50.90;101730.78;5051520;28;20573;-31
2022/04/11 06:29:09;;;;;;;25.02;12.35;;;;;;;10.02;52.46;101733.97;5051478;28;20035;-31
2022/04/11 06:31:35;;;;;;;22.70;11.95;;;;;;;10.25;50.99;101727.06;5045105;28;20033;-33
2022/04/11 06:34:00;;;;;;;20.65;12.27;;;;;;;9.56;52.27;101730.56;5052015;28;20021;-30
2022/04/11 06:36:25;;;;;;;19.33;11.95;;;;;;;9.34;53.32;101730.00;5024811;28;20031;-33
2022/04/11 06:38:51;;;;;;;24.20;12.77;;;;;;;9.23;53.73;101720.31;5041300;28;20079;-31
2022/04/11 06:41:16;;;;;;;26.15;13.27;;;;;;;9.52;53.76;101729.16;5049998;28;20029;-32
2022/04/11 06:43:41;;;;;;;22.33;13.52;;;;;;;9.71;53.85;101715.56;5051939;28;20082;-31
2022/04/11 06:46:07;;;;;;;24.00;12.40;;;;;;;10.11;52.54;101723.13;5053489;28;20097;-31
2022/04/11 06:48:32;;;;;;;21.77;12.20;;;;;;;10.49;51.91;101723.72;5055954;28;20033;-30
2022/04/11 06:50:57;;;;;;;33.95;12.60;;;;;;;11.07;49.15;101724.81;5054151;28;20124;-33
2022/04/11 06:53:23;;;;;;;21.38;12.65;;;;;;;11.78;48.88;101727.97;5056957;28;20056;-29
2022/04/11 06:55:48;;;;;;;21.38;11.68;;;;;;;12.46;47.81;101724.06;5053048;28;20032;-32
2022/04/11 06:58:17;;;;;;;24.98;12.45;;;;;;;12.71;46.05;101722.94;5052314;28;20105;-30
2022/04/11 07:00:46;;;;;;;29.70;13.50;;;;;;;13.67;45.33;101722.78;5050481;28;20073;-32
2022/04/11 07:03:11;;;;;;;23.85;11.95;;;;;;;13.90;43.67;101725.47;5052578;28;20040;-31
2022/04/11 07:05:37;;;;;;;21.67;11.60;;;;;;;14.86;41.74;101710.25;5048620;28;20040;-30
2022/04/11 07:08:04;;;;;;;23.15;11.63;;;;;;;15.35;40.47;101723.16;5051527;28;20053;-30
2022/04/11 07:10:30;;;;;;;26.27;11.05;;;;;;;15.90;39.60;101718.06;5051359;28;20036;-31
2022/04/11 07:12:56;;;;;;;27.30;11.82;;;;;;;16.32;38.38;101719.84;5051911;28;20044;-32
2022/04/11 07:15:21;;;;;;;20.25;11.23;;;;;;;16.40;38.55;101718.84;5054343;28;20033;-30
2022/04/11 07:17:46;;;;;;;23.27;10.65;;;;;;;16.37;39.31;101711.13;5036337;28;20035;-31
2022/04/11 07:20:12;;;;;;;21.80;12.73;;;;;;;17.13;35.99;101719.25;5052567;28;20048;-31
2022/04/11 07:22:37;;;;;;;21.58;11.43;;;;;;;16.47;37.12;101714.31;5046003;28;20159;-31
2022/04/11 07:25:03;;;;;;;23.42;11.32;;;;;;;17.15;36.43;101717.19;5048904;28;20033;-30
2022/04/11 07:27:28;;;;;;;25.85;11.98;;;;;;;17.23;36.27;101714.28;5052995;28;20460;-31
2022/04/11 07:29:54;;;;;;;32.53;11.95;;;;;;;16.17;38.16;101709.09;5051415;28;20036;-31
2022/04/11 07:32:19;;;;;;;28.08;12.32;;;;;;;17.62;35.29;101707.25;5049233;28;20033;-30
2022/04/11 07:34:44;;;;;;;21.63;12.73;;;;;;;17.58;35.02;101711.41;5048386;28;20088;-32
2022/04/11 07:37:11;;;;;;;25.63;13.18;;;;;;;16.45;36.91;101709.06;5050318;28;20048;-31
2022/04/11 07:39:37;;;;;;;24.13;12.70;;;;;;;16.78;36.73;101716.59;5052099;28;20021;-32
2022/04/11 07:42:03;;;;;;;23.73;12.45;;;;;;;16.65;38.04;101701.03;5045941;28;20117;-30
2022/04/11 07:44:28;;;;;;;36.70;12.00;;;;;;;17.26;36.49;101697.53;5045214;28;20086;-30
2022/04/11 07:46:53;;;;;;;29.00;12.13;;;;;;;17.36;34.54;101693.59;5044731;28;20155;-30
2022/04/11 07:49:19;;;;;;;26.90;11.98;;;;;;;17.25;35.62;101679.56;5044931;28;20021;-29
2022/04/11 07:51:44;;;;;;;26.05;11.02;;;;;;;16.63;35.41;101680.53;5038672;28;20074;-30
2022/04/11 07:54:09;;;;;;;33.35;12.13;;;;;;;16.66;35.86;101669.25;5049475;28;20052;-31
2022/04/11 07:56:35;;;;;;;24.58;11.07;;;;;;;17.84;34.87;101677.13;5050438;28;20029;-30
2022/04/11 07:59:00;;;;;;;22.35;11.65;;;;;;;18.30;34.31;101676.22;5038767;28;20030;-31
2022/04/11 08:01:28;;;;;;;24.23;12.52;;;;;;;18.30;34.10;101679.81;5042075;28;20145;-29
2022/04/11 08:03:53;;;;;;;;;;;;;;;18.14;34.66;101678.38;5036942;28;20622;-31
2022/04/11 08:06:18;;;;;;;24.73;12.33;;;;;;;17.84;35.75;101675.22;5049218;28;20011;-30
2022/04/11 08:08:47;;;;;;;38.33;13.90;;;;;;;17.29;36.14;101664.47;5054207;28;20383;-31
2022/04/11 08:11:19;;;;;;;27.00;12.00;;;;;;;18.02;34.75;101674.59;5051910;28;20083;-30
2022/04/11 08:13:45;;;;;;;26.88;11.77;;;;;;;18.48;32.94;101679.09;5045028;28;20029;-31
2022/04/11 08:16:11;;;;;;;27.20;11.60;;;;;;;17.72;33.62;101669.56;5051772;28;20021;-30
2022/04/11 08:18:36;;;;;;;23.73;11.32;;;;;;;17.96;33.52;101670.00;5041850;28;20033;-32
2022/04/11 08:21:02;;;;;;;26.95;11.65;;;;;;;18.39;32.95;101670.34;5054044;28;20112;-31
2022/04/11 08:23:28;;;;;;;26.15;11.60;;;;;;;19.66;32.07;101676.03;5053747;28;20113;-30
2022/04/11 08:25:53;;;;;;;21.77;10.27;;;;;;;19.87;30.06;101669.34;5054268;28;20036;-31
2022/04/11 08:28:20;;;;;;;23.95;11.20;;;;;;;20.15;30.22;101668.88;5048413;28;20104;-31
2022/04/11 08:30:45;;;;;;;26.90;11.40;;;;;;;21.00;29.86;101661.81;5050108;28;20026;-31
2022/04/11 08:33:11;;;;;;;23.83;11.40;;;;;;;20.50;29.38;101659.25;5046137;28;20026;-31
2022/04/11 08:35:37;;;;;;;20.23;10.70;;;;;;;20.70;28.67;101665.38;5037625;28;20053;-31
2022/04/11 08:38:02;;;;;;;23.13;11.13;;;;;;;20.20;29.90;101670.13;5054387;28;20120;-30
2022/04/11 08:40:29;;;;;;;25.95;10.38;;;;;;;19.75;29.74;101668.41;5055474;28;20021;-31
2022/04/11 08:42:54;;;;;;;21.08;10.68;;;;;;;20.11;29.69;101670.38;5038802;28;20125;-32
2022/04/11 08:45:21;;;;;;;25.50;10.25;;;;;;;19.57;31.08;101671.06;5042823;28;20033;-30
2022/04/11 08:47:48;;;;;;;23.48;9.70;;;;;;;18.36;30.56;101664.50;5053681;28;20033;-32
2022/04/11 08:50:13;;;;;;;22.43;11.03;;;;;;;17.31;33.12;101656.13;5050887;28;20042;-31
2022/04/11 08:52:39;;;;;;;19.10;9.95;;;;;;;18.14;32.19;101653.84;5050596;28;20029;-32
2022/04/11 08:55:06;;;;;;;22.42;11.15;;;;;;;18.23;31.43;101653.63;5054716;28;20472;-31
2022/04/11 08:57:31;;;;;;;25.05;10.93;;;;;;;18.43;31.65;101648.94;5054563;28;20037;-30
2022/04/11 09:00:10;;;;;;;18.48;8.27;;;;;;;18.90;29.77;101644.16;5036011;28;20342;-29
2022/04/11 09:02:36;;;;;;;19.65;7.97;;;;;;;18.46;30.15;101648.53;5042105;28;20055;-31
2022/04/11 09:05:03;;;;;;;19.67;8.40;;;;;;;19.22;29.34;101646.91;5055044;28;20032;-29
2022/04/11 09:07:43;;;;;;;19.85;8.38;;;;;;;18.16;30.40;101638.09;5045526;28;20060;-29
2022/04/11 09:10:08;;;;;;;16.58;7.68;;;;;;;18.06;30.81;101634.16;5035993;28;20030;-29
2022/04/11 09:12:44;;;;;;;19.02;7.18;;;;;;;18.36;29.52;101639.97;5047932;28;20037;-32
2022/04/11 09:15:09;;;;;;;19.85;7.55;;;;;;;17.89;30.08;101636.50;5039877;28;20030;-33
2022/04/11 09:17:40;;;;;;;20.15;7.47;;;;;;;17.42;30.69;101641.06;5046624;28;20036;-31
2022/04/11 09:20:29;;;;;;;20.20;6.32;;;;;;;17.84;29.61;101622.66;5054895;28;20036;-30
2022/04/11 09:22:54;;;;;;;17.40;7.68;;;;;;;17.77;30.29;101622.63;5038838;28;20045;-32
2022/04/11 09:25:29;;;;;;;19.05;7.72;;;;;;;17.32;30.93;101625.13;5055208;28;20036;-30
2022/04/11 09:28:09;;;;;;;16.58;7.13;;;;;;;17.42;31.09;101619.28;5066729;28;20029;-32
2022/04/11 09:30:37;;;;;;;18.45;5.97;;;;;;;18.56;29.49;101613.47;5058495;28;20391;-30
2022/04/11 09:33:08;;;;;;;17.90;6.20;;;;;;;18.90;28.50;101622.34;5057789;28;20443;-31
2022/04/11 09:35:47;;;;;;;14.10;6.22;;;;;;;18.53;28.88;101619.34;5054181;28;20112;-31
2022/04/11 09:38:16;;;;;;;19.58;6.90;;;;;;;17.70;29.62;101633.53;5043500;28;20025;-30
2022/04/11 09:40:43;;;;;;;18.83;6.90;;;;;;;17.99;29.74;101626.84;5039364;28;20249;-32
2022/04/11 09:43:10;;;;;;;18.88;7.05;;;;;;;17.94;29.44;101634.81;5040426;28;20087;-32
2022/04/11 09:45:46;;;;;;;21.80;8.00;;;;;;;17.82;29.72;101627.47;5046026;28;20037;-31
2022/04/11 09:48:17;;;;;;;21.58;8.40;;;;;;;18.93;30.01;101629.25;5056554;28;20479;-31
2022/04/11 09:50:42;;;;;;;20.17;9.13;;;;;;;19.51;28.96;101619.00;5051175;28;20044;-31
2022/04/11 09:53:22;;;;;;;19.08;7.70;;;;;;;20.20;28.19;101619.00;5047643;28;20025;-31
2022/04/11 09:55:50;;;;;;;21.23;7.88;;;;;;;20.19;27.41;101614.59;5049333;28;20033;-30
2022/04/11 09:58:17;;;;;;;24.98;7.70;;;;;;;20.37;26.95;101605.56;5038770;28;20025;-30
2022/04/11 10:00:43;;;;;;;21.92;7.22;;;;;;;20.62;27.14;101602.78;5041890;28;20096;-31
2022/04/11 10:03:09;;;;;;;15.63;7.15;;;;;;;20.09;27.10;101606.09;5041820;28;20488;-31
2022/04/11 10:05:35;;;;;;;20.67;6.95;;;;;;;19.55;27.98;101615.81;5048716;28;20021;-32
2022/04/11 10:08:04;;;;;;;19.08;6.25;;;;;;;19.19;27.64;101625.53;5057964;28;20040;-30
2022/04/11 10:10:31;;;;;;;20.88;6.45;;;;;;;19.34;27.26;101619.78;5059866;28;20521;-32
2022/04/11 10:12:57;;;;;;;14.18;6.13;;;;;;;18.70;27.54;101608.78;5041685;28;20029;-32
2022/04/11 10:15:23;;;;;;;21.20;6.90;;;;;;;18.04;28.61;101612.59;5040194;28;20111;-31
2022/04/11 10:17:49;;;;;;;18.10;6.97;;;;;;;18.20;28.31;101590.31;5056235;28;20489;-31
2022/04/11 10:20:25;;;;;;;14.85;6.75;;;;;;;17.93;29.63;101602.31;5058105;28;20029;-31
2022/04/11 10:22:55;;;;;;;20.85;7.35;;;;;;;18.32;28.04;101592.38;5067133;28;20029;-33
2022/04/11 10:25:20;;;;;;;15.77;6.82;;;;;;;18.68;28.68;101574.63;5054078;28;20035;-31
2022/04/11 10:27:46;;;;;;;19.00;7.30;;;;;;;18.41;28.70;101591.94;5057216;28;20116;-31
2022/04/11 10:30:29;;;;;;;24.88;7.53;;;;;;;17.28;29.63;101581.19;5057291;28;20056;-30
2022/04/11 10:32:55;;;;;;;23.83;8.60;;;;;;;17.67;29.79;101579.50;5057677;28;20036;-30
2022/04/11 10:35:53;;;;;;;17.35;8.38;;;;;;;17.09;31.10;101576.59;5038114;28;20535;-32
2022/04/11 10:38:20;;;;;;;18.23;8.07;;;;;;;16.78;31.59;101575.25;5035046;28;20110;-29
2022/04/11 10:40:47;;;;;;;17.80;8.63;;;;;;;17.82;30.80;101570.28;5057807;28;20124;-29
2022/04/11 10:43:13;;;;;;;20.23;9.20;;;;;;;17.72;30.63;101574.28;5058397;28;20025;-31
2022/04/11 10:45:44;;;;;;;17.85;9.00;;;;;;;17.23;30.89;101566.53;5058915;28;20033;-32
2022/04/11 10:48:11;;;;;;;16.48;9.13;;;;;;;17.18;31.72;101556.28;5059883;28;20032;-30
2022/04/11 10:50:41;;;;;;;23.13;10.10;;;;;;;17.54;30.80;101555.88;5056401;28;20025;-30
2022/04/11 10:53:14;;;;;;;25.58;9.30;;;;;;;17.49;31.74;101554.81;5041858;28;20163;-31
2022/04/11 10:55:53;;;;;;;37.10;10.57;;;;;;;18.51;29.91;101558.78;5048546;28;20384;-32
2022/04/11 10:58:23;;;;;;;24.17;10.30;;;;;;;18.03;29.98;101555.59;5057772;28;20043;-31
2022/04/11 11:00:51;;;;;;;25.17;10.18;;;;;;;18.32;30.70;101533.25;5053864;28;20018;-31
2022/04/11 11:03:17;;;;;;;20.02;9.55;;;;;;;18.02;30.47;101538.41;5046507;28;20040;-32
2022/04/11 11:05:45;;;;;;;27.73;9.70;;;;;;;18.15;30.15;101538.38;5056500;28;20383;-31
2022/04/11 11:08:10;;;;;;;22.65;9.75;;;;;;;17.52;29.63;101535.34;5038015;28;20051;-32
2022/04/11 11:10:42;;;;;;;21.42;9.85;;;;;;;17.37;30.00;101532.00;5040523;28;20352;-31
2022/04/11 11:13:39;;;;;;;22.60;9.30;;;;;;;17.81;30.42;101525.06;5053669;28;20429;-32
2022/04/11 11:16:07;;;;;;;24.88;9.70;;;;;;;17.81;27.96;101516.91;5050952;28;20033;-32